Terminal Aerodrome Forecast
Issued by NWS

Home | Current Version | Previous Version | Text Only | Print | Product List | Glossary On
Versions: 1 2 3 4 5 6 7 8 9 10 11 12 13
000
FTUS46 KSGX 222324
TAFONT
TAF
KONT 222324Z 2300/2406 24008KT P6SM VCSH FEW025 OVC035
     FM230600 24005KT P6SM BKN020
     FM231800 VRB05KT P6SM SCT025 BKN035
     FM232200 24011KT P6SM FEW025 SCT040
     FM240500 VRB04KT P6SM BKN020=

USA.gov is the U.S. government's official web portal to all federal, state and local government web resources and services.